sensor_id;sensor_type;location;lat;lon;timestamp;temperature;humidity
4505;DHT22;2265;48.794;9.520;2022-07-17T00:00:38;16.70;98.00
4505;DHT22;2265;48.794;9.520;2022-07-17T00:03:09;16.60;98.00
4505;DHT22;2265;48.794;9.520;2022-07-17T00:05:36;16.80;98.00
4505;DHT22;2265;48.794;9.520;2022-07-17T00:08:07;16.70;98.00
4505;DHT22;2265;48.794;9.520;2022-07-17T00:10:35;16.50;98.00
4505;DHT22;2265;48.794;9.520;2022-07-17T00:13:02;16.40;98.00
4505;DHT22;2265;48.794;9.520;2022-07-17T00:15:30;16.40;98.00
4505;DHT22;2265;48.794;9.520;2022-07-17T00:17:59;16.50;98.00
4505;DHT22;2265;48.794;9.520;2022-07-17T00:20:28;16.50;98.00
4505;DHT22;2265;48.794;9.520;2022-07-17T00:22:55;16.50;98.00
4505;DHT22;2265;48.794;9.520;2022-07-17T00:25:25;16.40;98.00
4505;DHT22;2265;48.794;9.520;2022-07-17T00:27:52;16.50;98.00
4505;DHT22;2265;48.794;9.520;2022-07-17T00:30:19;16.40;98.00
4505;DHT22;2265;48.794;9.520;2022-07-17T00:32:47;16.30;98.00
4505;DHT22;2265;48.794;9.520;2022-07-17T00:35:14;16.20;98.00
4505;DHT22;2265;48.794;9.520;2022-07-17T00:37:43;16.00;98.00
4505;DHT22;2265;48.794;9.520;2022-07-17T00:40:13;16.00;98.00
4505;DHT22;2265;48.794;9.520;2022-07-17T00:42:42;16.10;98.00
4505;DHT22;2265;48.794;9.520;2022-07-17T00:45:11;15.90;98.00
4505;DHT22;2265;48.794;9.520;2022-07-17T00:47:50;15.80;98.00
4505;DHT22;2265;48.794;9.520;2022-07-17T00:50:17;15.80;98.00
4505;DHT22;2265;48.794;9.520;2022-07-17T00:52:45;15.80;98.00
4505;DHT22;2265;48.794;9.520;2022-07-17T00:55:13;15.90;98.00
4505;DHT22;2265;48.794;9.520;2022-07-17T00:57:42;15.80;98.00
4505;DHT22;2265;48.794;9.520;2022-07-17T01:00:12;15.70;98.00
4505;DHT22;2265;48.794;9.520;2022-07-17T01:02:40;15.50;98.00
4505;DHT22;2265;48.794;9.520;2022-07-17T01:05:07;15.50;98.00
4505;DHT22;2265;48.794;9.520;2022-07-17T01:07:34;15.60;98.00
4505;DHT22;2265;48.794;9.520;2022-07-17T01:10:02;15.50;98.00
4505;DHT22;2265;48.794;9.520;2022-07-17T01:12:29;15.60;98.00
4505;DHT22;2265;48.794;9.520;2022-07-17T01:14:59;15.70;98.00
4505;DHT22;2265;48.794;9.520;2022-07-17T01:17:28;15.50;98.00
4505;DHT22;2265;48.794;9.520;2022-07-17T01:19:58;15.40;98.00
4505;DHT22;2265;48.794;9.520;2022-07-17T01:22:28;15.40;98.00
4505;DHT22;2265;48.794;9.520;2022-07-17T01:24:56;15.40;98.00
4505;DHT22;2265;48.794;9.520;2022-07-17T01:27:23;15.20;98.00
4505;DHT22;2265;48.794;9.520;2022-07-17T01:29:50;15.30;98.00
4505;DHT22;2265;48.794;9.520;2022-07-17T01:32:17;15.30;98.00
4505;DHT22;2265;48.794;9.520;2022-07-17T01:34:45;15.20;98.00
4505;DHT22;2265;48.794;9.520;2022-07-17T01:37:13;15.20;98.00
4505;DHT22;2265;48.794;9.520;2022-07-17T01:39:42;15.20;98.00
4505;DHT22;2265;48.794;9.520;2022-07-17T01:42:22;15.10;98.00
4505;DHT22;2265;48.794;9.520;2022-07-17T01:44:50;15.10;98.00
4505;DHT22;2265;48.794;9.520;2022-07-17T01:47:19;15.10;98.00
4505;DHT22;2265;48.794;9.520;2022-07-17T01:49:47;15.30;98.00
4505;DHT22;2265;48.794;9.520;2022-07-17T01:52:14;15.40;98.00
4505;DHT22;2265;48.794;9.520;2022-07-17T01:54:43;15.30;98.00
4505;DHT22;2265;48.794;9.520;2022-07-17T01:57:12;15.40;98.00
4505;DHT22;2265;48.794;9.520;2022-07-17T01:59:40;15.20;98.00
4505;DHT22;2265;48.794;9.520;2022-07-17T02:02:08;15.10;98.00
4505;DHT22;2265;48.794;9.520;2022-07-17T02:04:36;15.10;98.00
4505;DHT22;2265;48.794;9.520;2022-07-17T02:07:04;15.10;98.00
4505;DHT22;2265;48.794;9.520;2022-07-17T02:09:31;15.00;98.00
4505;DHT22;2265;48.794;9.520;2022-07-17T02:12:00;15.00;98.00
4505;DHT22;2265;48.794;9.520;2022-07-17T02:14:28;15.00;98.00
4505;DHT22;2265;48.794;9.520;2022-07-17T02:16:56;14.90;98.00
4505;DHT22;2265;48.794;9.520;2022-07-17T02:19:23;15.00;98.00
4505;DHT22;2265;48.794;9.520;2022-07-17T02:21:51;15.00;98.00
4505;DHT22;2265;48.794;9.520;2022-07-17T02:24:18;14.90;98.00
4505;DHT22;2265;48.794;9.520;2022-07-17T02:26:45;14.80;98.00
4505;DHT22;2265;48.794;9.520;2022-07-17T02:29:14;14.70;98.00
4505;DHT22;2265;48.794;9.520;2022-07-17T02:31:41;14.50;98.00
4505;DHT22;2265;48.794;9.520;2022-07-17T02:34:09;14.50;98.00
4505;DHT22;2265;48.794;9.520;2022-07-17T02:36:36;14.50;98.00
4505;DHT22;2265;48.794;9.520;2022-07-17T02:39:06;14.40;98.00
4505;DHT22;2265;48.794;9.520;2022-07-17T02:41:33;14.40;98.00
4505;DHT22;2265;48.794;9.520;2022-07-17T02:44:01;14.40;98.00
4505;DHT22;2265;48.794;9.520;2022-07-17T02:46:29;14.40;98.00
4505;DHT22;2265;48.794;9.520;2022-07-17T02:48:57;14.50;98.00
4505;DHT22;2265;48.794;9.520;2022-07-17T02:51:24;14.40;98.00
4505;DHT22;2265;48.794;9.520;2022-07-17T02:53:51;14.30;98.00
4505;DHT22;2265;48.794;9.520;2022-07-17T02:56:18;14.40;98.00
4505;DHT22;2265;48.794;9.520;2022-07-17T02:58:46;14.40;98.00
4505;DHT22;2265;48.794;9.520;2022-07-17T03:01:13;14.20;98.00
4505;DHT22;2265;48.794;9.520;2022-07-17T03:03:41;14.20;98.00
4505;DHT22;2265;48.794;9.520;2022-07-17T03:06:08;14.20;98.00
4505;DHT22;2265;48.794;9.520;2022-07-17T03:08:35;14.30;98.00
4505;DHT22;2265;48.794;9.520;2022-07-17T03:11:03;14.20;98.00
4505;DHT22;2265;48.794;9.520;2022-07-17T03:13:30;14.50;98.00
4505;DHT22;2265;48.794;9.520;2022-07-17T03:15:58;14.50;98.00
4505;DHT22;2265;48.794;9.520;2022-07-17T03:18:25;14.40;98.00
4505;DHT22;2265;48.794;9.520;2022-07-17T03:20:53;14.40;98.00
4505;DHT22;2265;48.794;9.520;2022-07-17T03:23:21;14.40;98.00
4505;DHT22;2265;48.794;9.520;2022-07-17T03:25:48;14.30;98.00
4505;DHT22;2265;48.794;9.520;2022-07-17T03:28:15;14.40;98.00
4505;DHT22;2265;48.794;9.520;2022-07-17T03:30:42;14.40;98.00
4505;DHT22;2265;48.794;9.520;2022-07-17T03:33:09;14.50;98.00
4505;DHT22;2265;48.794;9.520;2022-07-17T03:35:37;14.40;98.00
4505;DHT22;2265;48.794;9.520;2022-07-17T03:38:06;14.10;98.00
4505;DHT22;2265;48.794;9.520;2022-07-17T03:40:33;14.00;98.00
4505;DHT22;2265;48.794;9.520;2022-07-17T03:43:00;13.90;98.00
4505;DHT22;2265;48.794;9.520;2022-07-17T03:45:28;14.00;98.00
4505;DHT22;2265;48.794;9.520;2022-07-17T03:47:55;13.80;98.00
4505;DHT22;2265;48.794;9.520;2022-07-17T03:50:22;13.70;98.00
4505;DHT22;2265;48.794;9.520;2022-07-17T03:52:50;13.70;98.00
4505;DHT22;2265;48.794;9.520;2022-07-17T03:55:19;13.60;98.00
4505;DHT22;2265;48.794;9.520;2022-07-17T03:57:46;13.70;98.00
4505;DHT22;2265;48.794;9.520;2022-07-17T04:00:15;13.90;98.00
4505;DHT22;2265;48.794;9.520;2022-07-17T04:02:42;13.90;98.00
4505;DHT22;2265;48.794;9.520;2022-07-17T04:05:09;13.80;98.00
4505;DHT22;2265;48.794;9.520;2022-07-17T04:07:37;13.80;98.00
4505;DHT22;2265;48.794;9.520;2022-07-17T04:10:05;13.90;98.00
4505;DHT22;2265;48.794;9.520;2022-07-17T04:12:34;13.80;98.00
4505;DHT22;2265;48.794;9.520;2022-07-17T04:15:05;13.70;98.00
4505;DHT22;2265;48.794;9.520;2022-07-17T04:18:00;13.80;98.00
4505;DHT22;2265;48.794;9.520;2022-07-17T04:20:27;13.80;98.00
4505;DHT22;2265;48.794;9.520;2022-07-17T04:22:54;13.80;98.00
4505;DHT22;2265;48.794;9.520;2022-07-17T04:25:21;13.90;98.00
4505;DHT22;2265;48.794;9.520;2022-07-17T04:27:50;14.00;98.00
4505;DHT22;2265;48.794;9.520;2022-07-17T04:30:17;13.90;98.00
4505;DHT22;2265;48.794;9.520;2022-07-17T04:32:44;13.90;98.00
4505;DHT22;2265;48.794;9.520;2022-07-17T04:35:12;13.90;98.00
4505;DHT22;2265;48.794;9.520;2022-07-17T04:37:39;13.90;98.00
4505;DHT22;2265;48.794;9.520;2022-07-17T04:40:08;13.80;98.00
4505;DHT22;2265;48.794;9.520;2022-07-17T04:42:35;13.70;98.00
4505;DHT22;2265;48.794;9.520;2022-07-17T04:45:04;13.70;98.00
4505;DHT22;2265;48.794;9.520;2022-07-17T04:47:33;13.80;98.00
4505;DHT22;2265;48.794;9.520;2022-07-17T04:50:00;13.80;98.00
4505;DHT22;2265;48.794;9.520;2022-07-17T04:52:27;13.90;98.00
4505;DHT22;2265;48.794;9.520;2022-07-17T04:54:55;14.00;98.00
4505;DHT22;2265;48.794;9.520;2022-07-17T04:57:22;13.90;98.00
4505;DHT22;2265;48.794;9.520;2022-07-17T04:59:49;14.10;98.00
4505;DHT22;2265;48.794;9.520;2022-07-17T05:02:18;14.20;98.00
4505;DHT22;2265;48.794;9.520;2022-07-17T05:04:45;14.20;98.00
4505;DHT22;2265;48.794;9.520;2022-07-17T05:07:13;14.00;98.00
4505;DHT22;2265;48.794;9.520;2022-07-17T05:09:40;14.10;98.00
4505;DHT22;2265;48.794;9.520;2022-07-17T05:12:08;14.10;98.00
4505;DHT22;2265;48.794;9.520;2022-07-17T05:14:35;14.10;98.00
4505;DHT22;2265;48.794;9.520;2022-07-17T05:17:02;14.10;98.00
4505;DHT22;2265;48.794;9.520;2022-07-17T05:19:31;14.20;98.00
4505;DHT22;2265;48.794;9.520;2022-07-17T05:21:58;14.30;98.00
4505;DHT22;2265;48.794;9.520;2022-07-17T05:24:26;14.50;98.00
4505;DHT22;2265;48.794;9.520;2022-07-17T05:26:53;14.60;98.00
4505;DHT22;2265;48.794;9.520;2022-07-17T05:29:20;14.70;98.00
4505;DHT22;2265;48.794;9.520;2022-07-17T05:31:49;15.00;98.00
4505;DHT22;2265;48.794;9.520;2022-07-17T05:34:16;15.20;98.00
4505;DHT22;2265;48.794;9.520;2022-07-17T05:36:45;15.40;98.00
4505;DHT22;2265;48.794;9.520;2022-07-17T05:39:13;15.50;98.00
4505;DHT22;2265;48.794;9.520;2022-07-17T05:41:40;15.50;98.00
4505;DHT22;2265;48.794;9.520;2022-07-17T05:44:07;15.60;98.00
4505;DHT22;2265;48.794;9.520;2022-07-17T05:46:37;15.70;98.00
4505;DHT22;2265;48.794;9.520;2022-07-17T05:49:04;15.90;98.00
4505;DHT22;2265;48.794;9.520;2022-07-17T05:51:31;15.90;98.00
4505;DHT22;2265;48.794;9.520;2022-07-17T05:54:00;16.10;98.00
4505;DHT22;2265;48.794;9.520;2022-07-17T05:56:27;16.10;98.00
4505;DHT22;2265;48.794;9.520;2022-07-17T05:58:54;16.20;98.00
4505;DHT22;2265;48.794;9.520;2022-07-17T06:01:21;16.30;98.00
4505;DHT22;2265;48.794;9.520;2022-07-17T06:03:48;16.40;98.00
4505;DHT22;2265;48.794;9.520;2022-07-17T06:06:16;16.60;98.00
4505;DHT22;2265;48.794;9.520;2022-07-17T06:08:44;16.70;98.00
4505;DHT22;2265;48.794;9.520;2022-07-17T06:11:12;16.80;98.00
4505;DHT22;2265;48.794;9.520;2022-07-17T06:13:40;16.90;98.00
4505;DHT22;2265;48.794;9.520;2022-07-17T06:16:08;16.90;98.00
4505;DHT22;2265;48.794;9.520;2022-07-17T06:18:35;16.90;98.00
4505;DHT22;2265;48.794;9.520;2022-07-17T06:21:03;17.00;98.00
4505;DHT22;2265;48.794;9.520;2022-07-17T06:23:30;17.00;98.00
4505;DHT22;2265;48.794;9.520;2022-07-17T06:25:57;17.10;98.00
4505;DHT22;2265;48.794;9.520;2022-07-17T06:28:26;17.20;98.00
4505;DHT22;2265;48.794;9.520;2022-07-17T06:30:53;17.40;98.00
4505;DHT22;2265;48.794;9.520;2022-07-17T06:33:20;17.50;98.00
4505;DHT22;2265;48.794;9.520;2022-07-17T06:35:48;17.60;98.00
4505;DHT22;2265;48.794;9.520;2022-07-17T06:38:15;17.60;98.00
4505;DHT22;2265;48.794;9.520;2022-07-17T06:40:44;17.70;98.00
4505;DHT22;2265;48.794;9.520;2022-07-17T06:43:11;17.80;98.00
4505;DHT22;2265;48.794;9.520;2022-07-17T06:45:40;17.80;98.00
4505;DHT22;2265;48.794;9.520;2022-07-17T06:48:07;17.90;98.00
4505;DHT22;2265;48.794;9.520;2022-07-17T06:50:34;18.00;98.00
4505;DHT22;2265;48.794;9.520;2022-07-17T06:53:02;18.20;98.00
4505;DHT22;2265;48.794;9.520;2022-07-17T06:55:29;18.30;98.00
4505;DHT22;2265;48.794;9.520;2022-07-17T06:57:56;18.40;98.00
4505;DHT22;2265;48.794;9.520;2022-07-17T07:00:23;18.60;98.00
4505;DHT22;2265;48.794;9.520;2022-07-17T07:02:52;18.70;98.00
4505;DHT22;2265;48.794;9.520;2022-07-17T07:05:21;18.80;98.00
4505;DHT22;2265;48.794;9.520;2022-07-17T07:07:48;19.00;98.00
4505;DHT22;2265;48.794;9.520;2022-07-17T07:10:15;19.20;98.00
4505;DHT22;2265;48.794;9.520;2022-07-17T07:12:44;19.30;98.00
4505;DHT22;2265;48.794;9.520;2022-07-17T07:15:11;19.40;97.90
4505;DHT22;2265;48.794;9.520;2022-07-17T07:17:38;19.50;97.00
4505;DHT22;2265;48.794;9.520;2022-07-17T07:20:08;19.80;97.40
4505;DHT22;2265;48.794;9.520;2022-07-17T07:22:35;19.90;96.90
4505;DHT22;2265;48.794;9.520;2022-07-17T07:25:03;20.00;95.90
4505;DHT22;2265;48.794;9.520;2022-07-17T07:27:32;20.10;94.70
4505;DHT22;2265;48.794;9.520;2022-07-17T07:29:59;20.20;93.90
4505;DHT22;2265;48.794;9.520;2022-07-17T07:32:26;20.30;93.80
4505;DHT22;2265;48.794;9.520;2022-07-17T07:34:53;20.40;93.10
4505;DHT22;2265;48.794;9.520;2022-07-17T07:37:22;20.50;94.30
4505;DHT22;2265;48.794;9.520;2022-07-17T07:39:49;20.70;93.10
4505;DHT22;2265;48.794;9.520;2022-07-17T07:42:16;20.90;91.30
4505;DHT22;2265;48.794;9.520;2022-07-17T07:44:43;20.90;91.20
4505;DHT22;2265;48.794;9.520;2022-07-17T07:47:10;21.10;90.80
4505;DHT22;2265;48.794;9.520;2022-07-17T07:49:38;21.20;91.00
4505;DHT22;2265;48.794;9.520;2022-07-17T07:52:05;21.30;88.80
4505;DHT22;2265;48.794;9.520;2022-07-17T07:54:34;21.50;94.50
4505;DHT22;2265;48.794;9.520;2022-07-17T07:57:02;21.80;93.20
4505;DHT22;2265;48.794;9.520;2022-07-17T07:59:29;22.10;94.40
4505;DHT22;2265;48.794;9.520;2022-07-17T08:01:58;22.40;88.60
4505;DHT22;2265;48.794;9.520;2022-07-17T08:04:25;22.50;90.00
4505;DHT22;2265;48.794;9.520;2022-07-17T08:06:53;22.70;88.80
4505;DHT22;2265;48.794;9.520;2022-07-17T08:09:20;22.90;90.10
4505;DHT22;2265;48.794;9.520;2022-07-17T08:11:53;23.10;89.30
4505;DHT22;2265;48.794;9.520;2022-07-17T08:14:20;23.30;88.60
4505;DHT22;2265;48.794;9.520;2022-07-17T08:16:49;23.40;87.10
4505;DHT22;2265;48.794;9.520;2022-07-17T08:19:16;23.40;86.30
4505;DHT22;2265;48.794;9.520;2022-07-17T08:21:44;23.60;84.40
4505;DHT22;2265;48.794;9.520;2022-07-17T08:24:12;23.70;86.20
4505;DHT22;2265;48.794;9.520;2022-07-17T08:26:40;23.80;84.00
4505;DHT22;2265;48.794;9.520;2022-07-17T08:29:09;23.80;85.30
4505;DHT22;2265;48.794;9.520;2022-07-17T08:31:37;23.80;83.10
4505;DHT22;2265;48.794;9.520;2022-07-17T08:34:06;23.80;83.20
4505;DHT22;2265;48.794;9.520;2022-07-17T08:36:37;23.90;84.20
4505;DHT22;2265;48.794;9.520;2022-07-17T08:39:06;24.00;85.00
4505;DHT22;2265;48.794;9.520;2022-07-17T08:41:37;24.10;83.00
4505;DHT22;2265;48.794;9.520;2022-07-17T08:44:05;24.10;81.40
4505;DHT22;2265;48.794;9.520;2022-07-17T08:46:36;24.20;82.00
4505;DHT22;2265;48.794;9.520;2022-07-17T08:49:06;24.40;80.60
4505;DHT22;2265;48.794;9.520;2022-07-17T08:51:34;24.30;80.40
4505;DHT22;2265;48.794;9.520;2022-07-17T08:54:01;24.20;80.50
4505;DHT22;2265;48.794;9.520;2022-07-17T08:56:29;24.40;78.90
4505;DHT22;2265;48.794;9.520;2022-07-17T08:58:56;24.60;79.40
4505;DHT22;2265;48.794;9.520;2022-07-17T09:01:24;24.70;78.80
4505;DHT22;2265;48.794;9.520;2022-07-17T09:03:58;24.80;78.30
4505;DHT22;2265;48.794;9.520;2022-07-17T09:06:31;24.90;76.90
4505;DHT22;2265;48.794;9.520;2022-07-17T09:09:03;25.10;77.90
4505;DHT22;2265;48.794;9.520;2022-07-17T09:11:41;25.00;75.90
4505;DHT22;2265;48.794;9.520;2022-07-17T09:14:09;25.10;76.70
4505;DHT22;2265;48.794;9.520;2022-07-17T09:16:47;25.20;76.40
4505;DHT22;2265;48.794;9.520;2022-07-17T09:19:28;25.30;76.10
4505;DHT22;2265;48.794;9.520;2022-07-17T09:22:10;25.50;76.70
4505;DHT22;2265;48.794;9.520;2022-07-17T09:24:45;25.50;76.40
4505;DHT22;2265;48.794;9.520;2022-07-17T09:27:14;25.70;75.20
4505;DHT22;2265;48.794;9.520;2022-07-17T09:29:51;25.90;75.70
4505;DHT22;2265;48.794;9.520;2022-07-17T09:32:19;26.00;73.60
4505;DHT22;2265;48.794;9.520;2022-07-17T09:34:48;26.10;75.10
4505;DHT22;2265;48.794;9.520;2022-07-17T09:37:15;26.20;76.00
4505;DHT22;2265;48.794;9.520;2022-07-17T09:39:43;26.40;73.90
4505;DHT22;2265;48.794;9.520;2022-07-17T09:42:21;26.40;74.30
4505;DHT22;2265;48.794;9.520;2022-07-17T09:44:56;26.50;73.80
4505;DHT22;2265;48.794;9.520;2022-07-17T09:47:23;26.70;75.20
4505;DHT22;2265;48.794;9.520;2022-07-17T09:49:54;26.80;74.20
4505;DHT22;2265;48.794;9.520;2022-07-17T09:52:23;27.00;72.70
4505;DHT22;2265;48.794;9.520;2022-07-17T09:54:52;27.00;73.20
4505;DHT22;2265;48.794;9.520;2022-07-17T09:57:20;27.20;73.60
4505;DHT22;2265;48.794;9.520;2022-07-17T09:59:50;27.30;71.60
4505;DHT22;2265;48.794;9.520;2022-07-17T10:02:19;27.40;71.50
4505;DHT22;2265;48.794;9.520;2022-07-17T10:04:47;27.60;71.00
4505;DHT22;2265;48.794;9.520;2022-07-17T10:07:18;27.80;70.10
4505;DHT22;2265;48.794;9.520;2022-07-17T10:09:49;27.90;71.00
4505;DHT22;2265;48.794;9.520;2022-07-17T10:12:16;28.00;69.90
4505;DHT22;2265;48.794;9.520;2022-07-17T10:14:47;28.20;70.10
4505;DHT22;2265;48.794;9.520;2022-07-17T10:17:20;28.20;67.80
4505;DHT22;2265;48.794;9.520;2022-07-17T10:19:48;28.20;68.00
4505;DHT22;2265;48.794;9.520;2022-07-17T10:22:17;28.30;69.10
4505;DHT22;2265;48.794;9.520;2022-07-17T10:24:46;28.30;67.30
4505;DHT22;2265;48.794;9.520;2022-07-17T10:27:21;28.40;68.30
4505;DHT22;2265;48.794;9.520;2022-07-17T10:30:00;28.40;66.20
4505;DHT22;2265;48.794;9.520;2022-07-17T10:32:28;28.30;66.20
4505;DHT22;2265;48.794;9.520;2022-07-17T10:34:59;28.30;67.70
4505;DHT22;2265;48.794;9.520;2022-07-17T10:37:31;28.40;67.20
4505;DHT22;2265;48.794;9.520;2022-07-17T10:40:03;28.40;67.80
4505;DHT22;2265;48.794;9.520;2022-07-17T10:42:55;28.40;67.20
4505;DHT22;2265;48.794;9.520;2022-07-17T10:45:31;28.50;66.10
4505;DHT22;2265;48.794;9.520;2022-07-17T10:48:03;28.70;65.40
4505;DHT22;2265;48.794;9.520;2022-07-17T10:50:33;28.80;63.90
4505;DHT22;2265;48.794;9.520;2022-07-17T10:53:05;29.10;63.00
4505;DHT22;2265;48.794;9.520;2022-07-17T10:55:33;29.20;61.40
4505;DHT22;2265;48.794;9.520;2022-07-17T10:58:01;29.30;62.40
4505;DHT22;2265;48.794;9.520;2022-07-17T11:00:28;29.40;62.00
4505;DHT22;2265;48.794;9.520;2022-07-17T11:02:55;29.60;61.40
4505;DHT22;2265;48.794;9.520;2022-07-17T11:05:23;29.80;62.00
4505;DHT22;2265;48.794;9.520;2022-07-17T11:07:55;29.80;60.30
4505;DHT22;2265;48.794;9.520;2022-07-17T11:10:26;29.90;62.40
4505;DHT22;2265;48.794;9.520;2022-07-17T11:12:55;30.10;61.60
4505;DHT22;2265;48.794;9.520;2022-07-17T11:15:22;30.20;61.70
4505;DHT22;2265;48.794;9.520;2022-07-17T11:17:50;30.30;60.70
4505;DHT22;2265;48.794;9.520;2022-07-17T11:20:20;30.30;62.40
4505;DHT22;2265;48.794;9.520;2022-07-17T11:22:57;30.50;60.60
4505;DHT22;2265;48.794;9.520;2022-07-17T11:25:26;30.60;60.90
4505;DHT22;2265;48.794;9.520;2022-07-17T11:27:53;30.90;60.50
4505;DHT22;2265;48.794;9.520;2022-07-17T11:30:20;31.10;58.70
4505;DHT22;2265;48.794;9.520;2022-07-17T11:32:49;31.20;60.00
4505;DHT22;2265;48.794;9.520;2022-07-17T11:35:18;31.40;59.70
4505;DHT22;2265;48.794;9.520;2022-07-17T11:37:47;31.60;59.70
4505;DHT22;2265;48.794;9.520;2022-07-17T11:40:14;31.80;58.30
4505;DHT22;2265;48.794;9.520;2022-07-17T11:42:46;32.10;58.00
4505;DHT22;2265;48.794;9.520;2022-07-17T11:45:13;32.20;58.20
4505;DHT22;2265;48.794;9.520;2022-07-17T11:47:41;32.40;58.60
4505;DHT22;2265;48.794;9.520;2022-07-17T11:50:12;32.50;58.60
4505;DHT22;2265;48.794;9.520;2022-07-17T11:52:43;32.50;56.20
4505;DHT22;2265;48.794;9.520;2022-07-17T11:55:15;32.50;55.50
4505;DHT22;2265;48.794;9.520;2022-07-17T11:57:46;32.80;55.60
4505;DHT22;2265;48.794;9.520;2022-07-17T12:00:15;33.00;54.40
4505;DHT22;2265;48.794;9.520;2022-07-17T12:02:43;33.10;55.10
4505;DHT22;2265;48.794;9.520;2022-07-17T12:05:10;33.20;52.80
4505;DHT22;2265;48.794;9.520;2022-07-17T12:07:46;33.30;52.40
4505;DHT22;2265;48.794;9.520;2022-07-17T12:10:16;33.50;51.50
4505;DHT22;2265;48.794;9.520;2022-07-17T12:12:56;33.50;51.60
4505;DHT22;2265;48.794;9.520;2022-07-17T12:15:37;33.10;52.00
4505;DHT22;2265;48.794;9.520;2022-07-17T12:18:05;33.30;53.20
4505;DHT22;2265;48.794;9.520;2022-07-17T12:20:42;33.30;52.00
4505;DHT22;2265;48.794;9.520;2022-07-17T12:23:25;33.40;53.00
4505;DHT22;2265;48.794;9.520;2022-07-17T12:26:03;33.10;52.70
4505;DHT22;2265;48.794;9.520;2022-07-17T12:28:34;33.40;52.80
4505;DHT22;2265;48.794;9.520;2022-07-17T12:31:01;33.70;53.00
4505;DHT22;2265;48.794;9.520;2022-07-17T12:33:29;33.80;53.50
4505;DHT22;2265;48.794;9.520;2022-07-17T12:36:02;33.70;52.20
4505;DHT22;2265;48.794;9.520;2022-07-17T12:38:29;33.90;51.80
4505;DHT22;2265;48.794;9.520;2022-07-17T12:40:57;34.00;53.40
4505;DHT22;2265;48.794;9.520;2022-07-17T12:43:25;34.00;51.10
4505;DHT22;2265;48.794;9.520;2022-07-17T12:45:54;34.10;52.50
4505;DHT22;2265;48.794;9.520;2022-07-17T12:48:21;34.20;52.10
4505;DHT22;2265;48.794;9.520;2022-07-17T12:50:49;34.40;52.40
4505;DHT22;2265;48.794;9.520;2022-07-17T12:53:16;34.60;51.00
4505;DHT22;2265;48.794;9.520;2022-07-17T12:55:45;34.60;52.30
4505;DHT22;2265;48.794;9.520;2022-07-17T12:58:12;34.70;52.20
4505;DHT22;2265;48.794;9.520;2022-07-17T13:00:40;34.80;52.10
4505;DHT22;2265;48.794;9.520;2022-07-17T13:03:12;35.10;52.10
4505;DHT22;2265;48.794;9.520;2022-07-17T13:05:40;35.20;50.80
4505;DHT22;2265;48.794;9.520;2022-07-17T13:08:07;35.30;50.90
4505;DHT22;2265;48.794;9.520;2022-07-17T13:10:35;35.20;50.40
4505;DHT22;2265;48.794;9.520;2022-07-17T13:13:02;35.40;51.00
4505;DHT22;2265;48.794;9.520;2022-07-17T13:15:29;35.40;49.20
4505;DHT22;2265;48.794;9.520;2022-07-17T13:17:57;35.30;50.10
4505;DHT22;2265;48.794;9.520;2022-07-17T13:20:27;35.40;50.70
4505;DHT22;2265;48.794;9.520;2022-07-17T13:22:55;35.20;50.90
4505;DHT22;2265;48.794;9.520;2022-07-17T13:25:22;35.40;51.80
4505;DHT22;2265;48.794;9.520;2022-07-17T13:27:49;35.60;50.10
4505;DHT22;2265;48.794;9.520;2022-07-17T13:30:17;35.70;49.40
4505;DHT22;2265;48.794;9.520;2022-07-17T13:32:45;35.90;48.10
4505;DHT22;2265;48.794;9.520;2022-07-17T13:35:12;35.70;49.00
4505;DHT22;2265;48.794;9.520;2022-07-17T13:37:40;35.90;48.60
4505;DHT22;2265;48.794;9.520;2022-07-17T13:40:10;35.60;48.70
4505;DHT22;2265;48.794;9.520;2022-07-17T13:42:38;35.70;48.80
4505;DHT22;2265;48.794;9.520;2022-07-17T13:45:07;35.60;48.90
4505;DHT22;2265;48.794;9.520;2022-07-17T13:47:35;35.80;50.70
4505;DHT22;2265;48.794;9.520;2022-07-17T13:50:03;35.90;49.80
4505;DHT22;2265;48.794;9.520;2022-07-17T13:52:30;35.90;50.00
4505;DHT22;2265;48.794;9.520;2022-07-17T13:54:59;36.00;50.20
4505;DHT22;2265;48.794;9.520;2022-07-17T13:57:26;35.90;50.50
4505;DHT22;2265;48.794;9.520;2022-07-17T13:59:54;36.20;50.00
4505;DHT22;2265;48.794;9.520;2022-07-17T14:02:23;36.40;49.20
4505;DHT22;2265;48.794;9.520;2022-07-17T14:04:50;36.50;48.90
4505;DHT22;2265;48.794;9.520;2022-07-17T14:07:17;36.70;49.10
4505;DHT22;2265;48.794;9.520;2022-07-17T14:09:44;36.70;49.20
4505;DHT22;2265;48.794;9.520;2022-07-17T14:12:13;36.70;49.50
4505;DHT22;2265;48.794;9.520;2022-07-17T14:14:40;36.40;49.00
4505;DHT22;2265;48.794;9.520;2022-07-17T14:17:07;36.40;48.90
4505;DHT22;2265;48.794;9.520;2022-07-17T14:19:35;36.00;48.30
4505;DHT22;2265;48.794;9.520;2022-07-17T14:22:03;36.00;49.40
4505;DHT22;2265;48.794;9.520;2022-07-17T14:24:30;36.10;49.70
4505;DHT22;2265;48.794;9.520;2022-07-17T14:26:58;36.20;49.00
4505;DHT22;2265;48.794;9.520;2022-07-17T14:29:29;36.20;49.10
4505;DHT22;2265;48.794;9.520;2022-07-17T14:31:57;36.40;47.70
4505;DHT22;2265;48.794;9.520;2022-07-17T14:34:24;36.60;47.40
4505;DHT22;2265;48.794;9.520;2022-07-17T14:36:51;36.60;48.10
4505;DHT22;2265;48.794;9.520;2022-07-17T14:39:18;36.70;48.80
4505;DHT22;2265;48.794;9.520;2022-07-17T14:41:45;36.40;47.70
4505;DHT22;2265;48.794;9.520;2022-07-17T14:44:13;36.50;47.90
4505;DHT22;2265;48.794;9.520;2022-07-17T14:46:42;36.50;48.80
4505;DHT22;2265;48.794;9.520;2022-07-17T14:49:10;36.40;47.30
4505;DHT22;2265;48.794;9.520;2022-07-17T14:51:37;36.60;48.90
4505;DHT22;2265;48.794;9.520;2022-07-17T14:54:05;36.80;48.10
4505;DHT22;2265;48.794;9.520;2022-07-17T14:56:32;36.90;48.40
4505;DHT22;2265;48.794;9.520;2022-07-17T14:58:59;36.90;47.00
4505;DHT22;2265;48.794;9.520;2022-07-17T15:01:26;36.90;47.80
4505;DHT22;2265;48.794;9.520;2022-07-17T15:03:55;37.00;48.10
4505;DHT22;2265;48.794;9.520;2022-07-17T15:06:22;36.80;47.10
4505;DHT22;2265;48.794;9.520;2022-07-17T15:08:49;36.50;48.80
4505;DHT22;2265;48.794;9.520;2022-07-17T15:11:16;36.60;49.50
4505;DHT22;2265;48.794;9.520;2022-07-17T15:13:45;36.70;47.40
4505;DHT22;2265;48.794;9.520;2022-07-17T15:16:12;36.90;48.70
4505;DHT22;2265;48.794;9.520;2022-07-17T15:18:40;37.00;46.50
4505;DHT22;2265;48.794;9.520;2022-07-17T15:21:08;36.90;46.40
4505;DHT22;2265;48.794;9.520;2022-07-17T15:23:36;36.80;46.80
4505;DHT22;2265;48.794;9.520;2022-07-17T15:26:03;36.70;47.20
4505;DHT22;2265;48.794;9.520;2022-07-17T15:28:31;36.60;47.40
4505;DHT22;2265;48.794;9.520;2022-07-17T15:30:58;36.50;47.30
4505;DHT22;2265;48.794;9.520;2022-07-17T15:33:26;36.50;46.90
4505;DHT22;2265;48.794;9.520;2022-07-17T15:35:53;36.60;48.00
4505;DHT22;2265;48.794;9.520;2022-07-17T15:38:22;36.60;46.40
4505;DHT22;2265;48.794;9.520;2022-07-17T15:40:49;36.50;46.70
4505;DHT22;2265;48.794;9.520;2022-07-17T15:43:16;36.50;47.00
4505;DHT22;2265;48.794;9.520;2022-07-17T15:45:43;36.50;47.50
4505;DHT22;2265;48.794;9.520;2022-07-17T15:48:11;36.40;47.50
4505;DHT22;2265;48.794;9.520;2022-07-17T15:50:38;36.20;47.60
4505;DHT22;2265;48.794;9.520;2022-07-17T15:53:05;36.00;47.30
4505;DHT22;2265;48.794;9.520;2022-07-17T15:55:34;35.80;47.00
4505;DHT22;2265;48.794;9.520;2022-07-17T15:58:01;35.60;46.00
4505;DHT22;2265;48.794;9.520;2022-07-17T16:00:28;35.50;46.30
4505;DHT22;2265;48.794;9.520;2022-07-17T16:02:55;35.70;47.40
4505;DHT22;2265;48.794;9.520;2022-07-17T16:05:28;35.70;46.90
4505;DHT22;2265;48.794;9.520;2022-07-17T16:10:24;35.80;46.60
4505;DHT22;2265;48.794;9.520;2022-07-17T16:12:52;35.70;47.10